Thursday, November 23, 2017, 6:31 PM GMT
Back to Local

CYHU, Saint Hubert Airport

Location: , , Canada Lat: 45.517
Local Time: 6:31 PM GMT (18:31 GMT) Lon: -73.417
Time Zone: GMT Elev: 88 ft

Show me the last for .
Show Coded

Time T Td Feel RH Dir Speed Gust Alt SLP Vis Weather Sky Remarks
2017-11-23 18:00 28 18 17 63 230° 14 - 30.00 30.01 9 FEW021 OVC170 None
2017-11-23 17:00 25 16 13 68 230° 14 - 30.02 30.03 9 FEW110 SCT140 None
2017-11-23 16:00 25 14 12 62 230° 15 - 30.06 30.07 9 FEW110 None
2017-11-23 15:00 25 12 13 58 260° 13 - 30.10 30.10 9 BKN150 None
2017-11-23 14:00 23 14 12 67 250° 10 - 30.12 30.13 9 CLR None
2017-11-23 13:00 19 12 9 73 290° 9 - 30.12 30.13 9 CLR None
2017-11-23 12:00 19 10 10 67 280° 7 - 30.13 30.14 9 CLR None
2017-11-23 11:00 21 12 14 67 270° 6 - 30.12 30.12 9 OVC025 None
2017-11-23 10:00 21 12 11 67 300° 9 - 30.11 30.12 9 OVC027 None
2017-11-23 09:00 21 12 11 67 330° 9 - 30.10 30.11 9 OVC027 None
2017-11-23 08:00 23 12 15 62 280° 7 - 30.10 30.11 9 OVC027 None
2017-11-23 07:08 23 12 12 62 300° 10 - 30.10 30.11 9 OVC025 None
2017-11-23 07:00 23 14 15 67 340° 7 - 30.10 30.11 9 -SN OVC025 None
2017-11-23 06:05 23 14 13 67 340° 9 - 30.10 30.10 9 -SN OVC025 None
2017-11-23 06:03 23 14 12 67 330° 12 - 30.10 30.10 9 OVC025 None
2017-11-23 06:00 23 14 12 67 340° 10 - 30.10 30.10 9 -SN OVC025 None
2017-11-23 05:41 23 16 13 73 320° 9 - 30.10 30.11 9 -SN OVC025 None
2017-11-23 05:37 23 16 12 73 340° 10 - 30.10 30.11 9 OVC025 None
2017-11-23 05:17 23 16 12 73 340° 10 - 30.10 30.11 9 OVC023 None
2017-11-23 05:07 25 16 16 68 340° 8 - 30.10 30.11 9 -SN OVC023 None
2017-11-23 05:00 25 16 15 68 330° 9 - 30.10 30.11 9 OVC023 None
2017-11-23 04:40 25 16 15 68 340° 9 - 30.10 30.11 9 -SN OVC023 None
2017-11-23 04:00 25 18 15 73 340° 9 - 30.09 30.10 9 OVC023 None
2017-11-23 03:30 25 18 14 73 330° 12 - 30.09 30.09 9 OVC023 None
2017-11-23 03:00 27 19 16 73 340° 13 - 30.09 30.09 9 OVC025 None
2017-11-23 02:00 28 21 18 74 340° 13 - 30.07 30.08 9 OVC025 None
2017-11-23 01:47 28 19 18 68 320° 13 - 30.07 30.08 9 OVC025 None
2017-11-23 01:00 30 23 21 74 290° 10 - 30.06 30.07 9 OVC023 None
2017-11-23 00:00 32 25 23 74 290° 12 - 30.05 30.06 9 OVC023 None
2017-11-22 23:00 34 25 23 69 300° 12 18 30.03 30.04 9 OVC023 None
2017-11-22 22:43 34 27 23 74 310° 12 17 30.02 30.03 9 BKN023 OVC055 None
2017-11-22 22:00 34 28 23 80 300° 12 17 30.00 30.01 9 FEW027 BKN044 OVC055 None
2017-11-22 21:52 34 28 25 80 300° 12 - 30.00 30.01 9 FEW031 BKN044 OVC050 None
2017-11-22 21:42 34 28 26 80 300° 10 - 30.00 30.01 6 -RA FEW026 BKN031 OVC040 None
2017-11-22 21:17 34 30 24 86 290° 14 - 30.00 30.01 5 -RA BR SCT015 OVC026 None
2017-11-22 21:00 34 30 24 86 300° 14 - 29.99 30.00 4 -RA BR SCT015 BKN021 OVC055 None
2017-11-22 20:59 36 30 26 80 300° 15 - 29.99 30.00 5 -RA BKN018 BKN023 OVC055 None
2017-11-22 20:57 36 30 27 80 300° 14 - 29.99 30.00 8 -RA BKN018 BKN026 OVC055 None
2017-11-22 20:46 36 30 27 80 280° 13 - 29.99 29.99 9 BKN020 BKN039 OVC055 None
2017-11-22 20:25 36 30 25 80 280° 9 17 29.98 29.98 9 SCT024 OVC055 None
2017-11-22 20:06 37 30 29 74 280° 14 - 29.97 29.98 9 SCT018 BKN024 OVC055 Pressure rising rapidly
2017-11-22 20:03 37 30 28 74 280° 12 17 29.97 29.98 9 SCT018 OVC055 None
2017-11-22 20:00 37 30 27 74 270° 14 20 29.97 29.98 9 BKN018 OVC055 None
2017-11-22 19:51 37 30 27 74 280° 14 20 29.96 29.97 9 BKN018 OVC055 None
2017-11-22 19:00 37 32 30 80 270° 12 - 29.95 29.95 9 SCT016 OVC060 None

Support USWX by starting your Amazon purchase here.